Deerfield, WI

6:34 AM CDT on August 03, 2015 (GMT -0500)
Cambridge | | Change Station
CLOSE
Current Station
Personal Weather Station
Location: Cambridge, WI
Elevation: 883 ft
Nearby Weather Stations

Elev 883 ft 43.00 °N, 89.01 °W | Updated 11 seconds ago

Clear
Clear
63.9 °F
Feels Like 63.9 °F
N
0.7
Wind Variable Wind from West

Today
High -- | Low -- °F
--% Chance of Precip.
Yesterday
High -- | Low -- °F
Precip. -- in
5:48 AM 8:15 PM
Waning Gibbous, 87% visible
Pressure 29.82 in
Visibility 10.0 miles
Clouds Few 4700 ft
Dew Point 55 °F
Humidity 74%
Rainfall 0.00 in
Snow Depth Not available.
UV 0 out of 12
Pollen 7.70 out of 12
Air Quality Not available.
Flu Activity Not available.
METAR KMSN 031053Z 00000KT 10SM FEW047 17/12 A2983 RMK AO2 SLP096 FIRST AUGMENTED OBS OF THE DAY T01720122

More Conditions Fewer Conditions

Pressure 29.82 in
Visibility 10.0 miles
Clouds Few 4700 ft
Dew Point 55 °F
Humidity 74%
Rainfall 0.00 in
Snow Depth Not available.
UV 0 out of 12
Pollen 7.70 out of 12
Air Quality Not available.
Flu Activity Not available.
METAR KMSN 031053Z 00000KT 10SM FEW047 17/12 A2983 RMK AO2 SLP096 FIRST AUGMENTED OBS OF THE DAY T01720122

More Conditions Fewer Conditions

10-Day Weather Forecast

×

Almanac

Astronomy

Aug. 03, 2015 Rise Set
Actual Time
Civil Twilight
Nautical Twilight
Astronomical Twilight
Moon
Length of Visible Light
Length of Day
Tomorrow will be .
, % of the Moon is Illuminated

Today's Extremes

State Highs State Lows

Community

WunderPhotos

Upload Photos

1,843,612 photos uploaded!

WunderBlogs® & News

Nearby

Air Quality

  Air Quality AQ Index Pollutant
Not available.

Snow Depth

Station Depth Elevation

Earthquake Activity

City Distance Mag. Time & Date
Minimum magnitude displayed is 2.5.

Coastal Water Temperatures

Place Temperature

Stations

Nearby Weather Stations

Station Location Temp. Windchill Dew Point Humidity Wind Precip. Elev Updated Type